sensor_id;sensor_type;location;lat;lon;timestamp;P1;durP1;ratioP1;P2;durP2;ratioP2
48667;SDS011;34453;52.198;5.004;2023-04-06T00:00:49;20.40;;;12.07;;
48667;SDS011;34453;52.198;5.004;2023-04-06T00:03:15;18.98;;;11.70;;
48667;SDS011;34453;52.198;5.004;2023-04-06T00:05:41;16.48;;;12.27;;
48667;SDS011;34453;52.198;5.004;2023-04-06T00:08:07;18.25;;;12.40;;
48667;SDS011;34453;52.198;5.004;2023-04-06T00:10:33;19.67;;;12.15;;
48667;SDS011;34453;52.198;5.004;2023-04-06T00:12:58;16.33;;;13.10;;
48667;SDS011;34453;52.198;5.004;2023-04-06T00:15:25;14.32;;;11.98;;
48667;SDS011;34453;52.198;5.004;2023-04-06T00:17:51;17.10;;;12.98;;
48667;SDS011;34453;52.198;5.004;2023-04-06T00:20:17;15.68;;;11.57;;
48667;SDS011;34453;52.198;5.004;2023-04-06T00:22:43;19.23;;;11.88;;
48667;SDS011;34453;52.198;5.004;2023-04-06T00:25:09;16.00;;;12.30;;
48667;SDS011;34453;52.198;5.004;2023-04-06T00:27:36;15.35;;;11.63;;
48667;SDS011;34453;52.198;5.004;2023-04-06T00:30:02;15.05;;;10.93;;
48667;SDS011;34453;52.198;5.004;2023-04-06T00:32:31;15.98;;;11.23;;
48667;SDS011;34453;52.198;5.004;2023-04-06T00:34:57;12.70;;;10.68;;
48667;SDS011;34453;52.198;5.004;2023-04-06T00:37:23;18.83;;;12.00;;
48667;SDS011;34453;52.198;5.004;2023-04-06T00:39:48;15.77;;;11.23;;
48667;SDS011;34453;52.198;5.004;2023-04-06T00:42:13;15.52;;;12.32;;
48667;SDS011;34453;52.198;5.004;2023-04-06T00:44:42;15.20;;;11.00;;
48667;SDS011;34453;52.198;5.004;2023-04-06T00:47:08;14.00;;;11.07;;
48667;SDS011;34453;52.198;5.004;2023-04-06T00:49:33;18.30;;;10.93;;
48667;SDS011;34453;52.198;5.004;2023-04-06T00:51:59;12.93;;;10.38;;
48667;SDS011;34453;52.198;5.004;2023-04-06T00:54:26;16.17;;;10.60;;
48667;SDS011;34453;52.198;5.004;2023-04-06T00:56:52;17.10;;;11.05;;
48667;SDS011;34453;52.198;5.004;2023-04-06T00:59:17;13.23;;;10.45;;
48667;SDS011;34453;52.198;5.004;2023-04-06T01:01:43;16.77;;;12.48;;
48667;SDS011;34453;52.198;5.004;2023-04-06T01:04:08;18.48;;;12.15;;
48667;SDS011;34453;52.198;5.004;2023-04-06T01:06:34;17.30;;;10.50;;
48667;SDS011;34453;52.198;5.004;2023-04-06T01:08:59;11.80;;;10.35;;
48667;SDS011;34453;52.198;5.004;2023-04-06T01:11:25;24.58;;;11.55;;
48667;SDS011;34453;52.198;5.004;2023-04-06T01:13:51;14.18;;;10.35;;
48667;SDS011;34453;52.198;5.004;2023-04-06T01:16:16;16.60;;;11.05;;
48667;SDS011;34453;52.198;5.004;2023-04-06T01:18:42;18.23;;;10.75;;
48667;SDS011;34453;52.198;5.004;2023-04-06T01:21:08;14.85;;;11.30;;
48667;SDS011;34453;52.198;5.004;2023-04-06T01:23:40;11.55;;;10.35;;
48667;SDS011;34453;52.198;5.004;2023-04-06T01:26:07;20.70;;;11.52;;
48667;SDS011;34453;52.198;5.004;2023-04-06T01:28:32;14.68;;;10.25;;
48667;SDS011;34453;52.198;5.004;2023-04-06T01:30:58;15.13;;;10.05;;
48667;SDS011;34453;52.198;5.004;2023-04-06T01:33:23;12.60;;;9.82;;
48667;SDS011;34453;52.198;5.004;2023-04-06T01:35:48;14.07;;;9.73;;
48667;SDS011;34453;52.198;5.004;2023-04-06T01:38:14;12.05;;;8.98;;
48667;SDS011;34453;52.198;5.004;2023-04-06T01:40:40;11.68;;;9.40;;
48667;SDS011;34453;52.198;5.004;2023-04-06T01:43:05;19.77;;;9.25;;
48667;SDS011;34453;52.198;5.004;2023-04-06T01:45:31;12.20;;;9.50;;
48667;SDS011;34453;52.198;5.004;2023-04-06T01:47:57;11.20;;;8.73;;
48667;SDS011;34453;52.198;5.004;2023-04-06T01:50:22;12.35;;;8.30;;
48667;SDS011;34453;52.198;5.004;2023-04-06T01:52:48;15.55;;;8.50;;
48667;SDS011;34453;52.198;5.004;2023-04-06T01:55:13;12.65;;;9.40;;
48667;SDS011;34453;52.198;5.004;2023-04-06T01:57:39;11.80;;;9.23;;
48667;SDS011;34453;52.198;5.004;2023-04-06T02:00:05;11.65;;;9.13;;
48667;SDS011;34453;52.198;5.004;2023-04-06T02:02:31;12.45;;;8.73;;
48667;SDS011;34453;52.198;5.004;2023-04-06T02:04:56;12.30;;;8.70;;
48667;SDS011;34453;52.198;5.004;2023-04-06T02:07:21;10.50;;;7.88;;
48667;SDS011;34453;52.198;5.004;2023-04-06T02:09:47;12.65;;;9.05;;
48667;SDS011;34453;52.198;5.004;2023-04-06T02:12:12;14.50;;;9.13;;
48667;SDS011;34453;52.198;5.004;2023-04-06T02:14:38;11.95;;;8.77;;
48667;SDS011;34453;52.198;5.004;2023-04-06T02:17:03;13.45;;;8.80;;
48667;SDS011;34453;52.198;5.004;2023-04-06T02:19:29;12.40;;;9.63;;
48667;SDS011;34453;52.198;5.004;2023-04-06T02:21:54;12.05;;;8.55;;
48667;SDS011;34453;52.198;5.004;2023-04-06T02:24:20;12.48;;;8.90;;
48667;SDS011;34453;52.198;5.004;2023-04-06T02:26:45;12.23;;;7.88;;
48667;SDS011;34453;52.198;5.004;2023-04-06T02:29:11;12.23;;;8.85;;
48667;SDS011;34453;52.198;5.004;2023-04-06T02:31:36;15.07;;;8.38;;
48667;SDS011;34453;52.198;5.004;2023-04-06T02:34:02;13.57;;;8.25;;
48667;SDS011;34453;52.198;5.004;2023-04-06T02:36:27;16.00;;;8.65;;
48667;SDS011;34453;52.198;5.004;2023-04-06T02:38:52;15.57;;;8.88;;
48667;SDS011;34453;52.198;5.004;2023-04-06T02:41:18;13.23;;;8.65;;
48667;SDS011;34453;52.198;5.004;2023-04-06T02:43:43;10.65;;;8.18;;
48667;SDS011;34453;52.198;5.004;2023-04-06T02:46:09;12.32;;;8.45;;
48667;SDS011;34453;52.198;5.004;2023-04-06T02:48:34;11.02;;;8.65;;
48667;SDS011;34453;52.198;5.004;2023-04-06T02:51:02;10.15;;;8.40;;
48667;SDS011;34453;52.198;5.004;2023-04-06T02:53:27;8.93;;;7.90;;
48667;SDS011;34453;52.198;5.004;2023-04-06T02:55:53;11.93;;;8.65;;
48667;SDS011;34453;52.198;5.004;2023-04-06T02:58:18;12.63;;;8.75;;
48667;SDS011;34453;52.198;5.004;2023-04-06T03:00:43;10.68;;;8.18;;
48667;SDS011;34453;52.198;5.004;2023-04-06T03:03:09;17.00;;;10.43;;
48667;SDS011;34453;52.198;5.004;2023-04-06T03:05:34;16.27;;;8.27;;
48667;SDS011;34453;52.198;5.004;2023-04-06T03:08:00;12.38;;;9.05;;
48667;SDS011;34453;52.198;5.004;2023-04-06T03:10:25;9.77;;;8.70;;
48667;SDS011;34453;52.198;5.004;2023-04-06T03:12:51;13.68;;;9.30;;
48667;SDS011;34453;52.198;5.004;2023-04-06T03:15:16;14.68;;;9.70;;
48667;SDS011;34453;52.198;5.004;2023-04-06T03:17:42;14.32;;;9.07;;
48667;SDS011;34453;52.198;5.004;2023-04-06T03:20:07;15.77;;;9.38;;
48667;SDS011;34453;52.198;5.004;2023-04-06T03:22:33;13.38;;;9.68;;
48667;SDS011;34453;52.198;5.004;2023-04-06T03:24:58;11.48;;;9.18;;
48667;SDS011;34453;52.198;5.004;2023-04-06T03:27:23;10.95;;;9.45;;
48667;SDS011;34453;52.198;5.004;2023-04-06T03:29:49;10.73;;;9.43;;
48667;SDS011;34453;52.198;5.004;2023-04-06T03:32:14;13.30;;;9.35;;
48667;SDS011;34453;52.198;5.004;2023-04-06T03:34:40;14.05;;;10.07;;
48667;SDS011;34453;52.198;5.004;2023-04-06T03:37:05;17.73;;;9.02;;
48667;SDS011;34453;52.198;5.004;2023-04-06T03:39:30;19.08;;;10.38;;
48667;SDS011;34453;52.198;5.004;2023-04-06T03:41:56;13.25;;;10.10;;
48667;SDS011;34453;52.198;5.004;2023-04-06T03:44:22;12.90;;;9.90;;
48667;SDS011;34453;52.198;5.004;2023-04-06T03:46:47;14.23;;;10.07;;
48667;SDS011;34453;52.198;5.004;2023-04-06T03:49:12;13.15;;;10.27;;
48667;SDS011;34453;52.198;5.004;2023-04-06T03:51:38;21.45;;;11.02;;
48667;SDS011;34453;52.198;5.004;2023-04-06T03:54:03;11.40;;;9.40;;
48667;SDS011;34453;52.198;5.004;2023-04-06T03:56:29;16.40;;;10.68;;
48667;SDS011;34453;52.198;5.004;2023-04-06T03:58:55;19.58;;;10.30;;
48667;SDS011;34453;52.198;5.004;2023-04-06T04:01:20;14.05;;;10.73;;
48667;SDS011;34453;52.198;5.004;2023-04-06T04:03:46;16.17;;;11.93;;
48667;SDS011;34453;52.198;5.004;2023-04-06T04:06:11;19.23;;;11.27;;
48667;SDS011;34453;52.198;5.004;2023-04-06T04:08:36;15.38;;;10.48;;
48667;SDS011;34453;52.198;5.004;2023-04-06T04:11:02;14.32;;;10.75;;
48667;SDS011;34453;52.198;5.004;2023-04-06T04:13:27;23.38;;;11.57;;
48667;SDS011;34453;52.198;5.004;2023-04-06T04:15:53;19.83;;;11.73;;
48667;SDS011;34453;52.198;5.004;2023-04-06T04:18:18;20.15;;;11.23;;
48667;SDS011;34453;52.198;5.004;2023-04-06T04:20:44;19.80;;;12.07;;
48667;SDS011;34453;52.198;5.004;2023-04-06T04:23:09;18.02;;;12.18;;
48667;SDS011;34453;52.198;5.004;2023-04-06T04:25:35;19.23;;;12.77;;
48667;SDS011;34453;52.198;5.004;2023-04-06T04:28:01;22.27;;;13.25;;
48667;SDS011;34453;52.198;5.004;2023-04-06T04:30:27;22.48;;;13.85;;
48667;SDS011;34453;52.198;5.004;2023-04-06T04:32:52;18.17;;;12.25;;
48667;SDS011;34453;52.198;5.004;2023-04-06T04:35:18;20.15;;;11.88;;
48667;SDS011;34453;52.198;5.004;2023-04-06T04:37:43;21.27;;;12.90;;
48667;SDS011;34453;52.198;5.004;2023-04-06T04:40:09;19.70;;;12.20;;
48667;SDS011;34453;52.198;5.004;2023-04-06T04:42:34;19.83;;;11.45;;
48667;SDS011;34453;52.198;5.004;2023-04-06T04:45:00;20.35;;;12.25;;
48667;SDS011;34453;52.198;5.004;2023-04-06T04:47:25;21.08;;;12.45;;
48667;SDS011;34453;52.198;5.004;2023-04-06T04:49:51;19.00;;;12.43;;
48667;SDS011;34453;52.198;5.004;2023-04-06T04:52:16;15.63;;;12.30;;
48667;SDS011;34453;52.198;5.004;2023-04-06T04:54:41;20.70;;;12.65;;
48667;SDS011;34453;52.198;5.004;2023-04-06T04:57:07;23.52;;;13.43;;
48667;SDS011;34453;52.198;5.004;2023-04-06T04:59:34;18.98;;;11.93;;
48667;SDS011;34453;52.198;5.004;2023-04-06T05:01:59;20.88;;;13.85;;
48667;SDS011;34453;52.198;5.004;2023-04-06T05:04:25;21.98;;;12.75;;
48667;SDS011;34453;52.198;5.004;2023-04-06T05:07:01;28.35;;;14.13;;
48667;SDS011;34453;52.198;5.004;2023-04-06T05:09:29;25.63;;;13.10;;
48667;SDS011;34453;52.198;5.004;2023-04-06T05:11:55;20.05;;;13.50;;
48667;SDS011;34453;52.198;5.004;2023-04-06T05:14:20;21.95;;;12.95;;
48667;SDS011;34453;52.198;5.004;2023-04-06T05:16:46;23.13;;;14.05;;
48667;SDS011;34453;52.198;5.004;2023-04-06T05:19:12;21.23;;;12.50;;
48667;SDS011;34453;52.198;5.004;2023-04-06T05:21:37;19.20;;;13.57;;
48667;SDS011;34453;52.198;5.004;2023-04-06T05:24:02;30.02;;;13.70;;
48667;SDS011;34453;52.198;5.004;2023-04-06T05:26:28;18.00;;;12.75;;
48667;SDS011;34453;52.198;5.004;2023-04-06T05:28:53;24.92;;;12.60;;
48667;SDS011;34453;52.198;5.004;2023-04-06T05:31:19;18.17;;;12.05;;
48667;SDS011;34453;52.198;5.004;2023-04-06T05:33:45;20.10;;;12.63;;
48667;SDS011;34453;52.198;5.004;2023-04-06T05:36:11;20.75;;;13.73;;
48667;SDS011;34453;52.198;5.004;2023-04-06T05:38:36;20.10;;;12.68;;
48667;SDS011;34453;52.198;5.004;2023-04-06T05:41:02;18.42;;;12.95;;
48667;SDS011;34453;52.198;5.004;2023-04-06T05:43:28;19.65;;;13.77;;
48667;SDS011;34453;52.198;5.004;2023-04-06T05:45:53;23.38;;;13.77;;
48667;SDS011;34453;52.198;5.004;2023-04-06T05:48:19;21.10;;;13.95;;
48667;SDS011;34453;52.198;5.004;2023-04-06T05:50:47;21.02;;;12.57;;
48667;SDS011;34453;52.198;5.004;2023-04-06T05:53:15;19.80;;;12.23;;
48667;SDS011;34453;52.198;5.004;2023-04-06T05:55:40;23.92;;;14.10;;
48667;SDS011;34453;52.198;5.004;2023-04-06T05:58:06;21.70;;;13.43;;
48667;SDS011;34453;52.198;5.004;2023-04-06T06:00:31;21.35;;;13.13;;
48667;SDS011;34453;52.198;5.004;2023-04-06T06:02:57;21.95;;;13.88;;
48667;SDS011;34453;52.198;5.004;2023-04-06T06:05:22;24.77;;;12.90;;
48667;SDS011;34453;52.198;5.004;2023-04-06T06:07:48;20.63;;;13.57;;
48667;SDS011;34453;52.198;5.004;2023-04-06T06:10:13;22.30;;;13.45;;
48667;SDS011;34453;52.198;5.004;2023-04-06T06:12:39;26.70;;;13.38;;
48667;SDS011;34453;52.198;5.004;2023-04-06T06:15:05;27.38;;;13.95;;
48667;SDS011;34453;52.198;5.004;2023-04-06T06:17:31;23.90;;;14.40;;
48667;SDS011;34453;52.198;5.004;2023-04-06T06:19:56;27.10;;;13.88;;
48667;SDS011;34453;52.198;5.004;2023-04-06T06:22:23;33.50;;;15.13;;
48667;SDS011;34453;52.198;5.004;2023-04-06T06:24:48;21.02;;;12.80;;
48667;SDS011;34453;52.198;5.004;2023-04-06T06:27:15;24.17;;;14.27;;
48667;SDS011;34453;52.198;5.004;2023-04-06T06:29:41;28.05;;;14.95;;
48667;SDS011;34453;52.198;5.004;2023-04-06T06:32:06;24.83;;;14.75;;
48667;SDS011;34453;52.198;5.004;2023-04-06T06:34:34;26.70;;;13.05;;
48667;SDS011;34453;52.198;5.004;2023-04-06T06:37:00;28.13;;;14.90;;
48667;SDS011;34453;52.198;5.004;2023-04-06T06:39:27;34.17;;;15.35;;
48667;SDS011;34453;52.198;5.004;2023-04-06T06:41:52;21.20;;;13.02;;
48667;SDS011;34453;52.198;5.004;2023-04-06T06:44:19;24.38;;;13.60;;
48667;SDS011;34453;52.198;5.004;2023-04-06T06:46:45;25.98;;;14.75;;
48667;SDS011;34453;52.198;5.004;2023-04-06T06:49:10;24.27;;;14.00;;
48667;SDS011;34453;52.198;5.004;2023-04-06T06:51:37;25.42;;;13.38;;
48667;SDS011;34453;52.198;5.004;2023-04-06T06:54:02;24.85;;;15.35;;
48667;SDS011;34453;52.198;5.004;2023-04-06T06:56:28;21.83;;;14.60;;
48667;SDS011;34453;52.198;5.004;2023-04-06T06:58:53;26.08;;;13.93;;
48667;SDS011;34453;52.198;5.004;2023-04-06T07:01:19;25.55;;;14.45;;
48667;SDS011;34453;52.198;5.004;2023-04-06T07:03:45;23.25;;;15.25;;
48667;SDS011;34453;52.198;5.004;2023-04-06T07:06:11;24.45;;;16.42;;
48667;SDS011;34453;52.198;5.004;2023-04-06T07:08:36;24.65;;;15.63;;
48667;SDS011;34453;52.198;5.004;2023-04-06T07:11:02;26.25;;;14.93;;
48667;SDS011;34453;52.198;5.004;2023-04-06T07:13:27;30.25;;;15.20;;
48667;SDS011;34453;52.198;5.004;2023-04-06T07:15:53;26.50;;;15.57;;
48667;SDS011;34453;52.198;5.004;2023-04-06T07:18:19;24.85;;;15.38;;
48667;SDS011;34453;52.198;5.004;2023-04-06T07:20:45;26.05;;;16.60;;
48667;SDS011;34453;52.198;5.004;2023-04-06T07:23:10;27.38;;;17.30;;
48667;SDS011;34453;52.198;5.004;2023-04-06T07:25:36;28.85;;;16.02;;
48667;SDS011;34453;52.198;5.004;2023-04-06T07:28:02;27.63;;;16.30;;
48667;SDS011;34453;52.198;5.004;2023-04-06T07:30:28;26.10;;;15.82;;
48667;SDS011;34453;52.198;5.004;2023-04-06T07:32:53;28.85;;;15.60;;
48667;SDS011;34453;52.198;5.004;2023-04-06T07:35:22;26.20;;;15.82;;
48667;SDS011;34453;52.198;5.004;2023-04-06T07:37:48;29.70;;;17.75;;
48667;SDS011;34453;52.198;5.004;2023-04-06T07:40:14;23.75;;;16.02;;
48667;SDS011;34453;52.198;5.004;2023-04-06T07:42:40;22.60;;;15.25;;
48667;SDS011;34453;52.198;5.004;2023-04-06T07:45:05;27.35;;;15.68;;
48667;SDS011;34453;52.198;5.004;2023-04-06T07:47:33;29.90;;;17.23;;
48667;SDS011;34453;52.198;5.004;2023-04-06T07:49:58;28.73;;;17.83;;
48667;SDS011;34453;52.198;5.004;2023-04-06T07:52:24;30.95;;;18.23;;
48667;SDS011;34453;52.198;5.004;2023-04-06T07:54:50;27.65;;;18.65;;
48667;SDS011;34453;52.198;5.004;2023-04-06T07:57:15;34.78;;;17.17;;
48667;SDS011;34453;52.198;5.004;2023-04-06T07:59:40;27.98;;;16.92;;
48667;SDS011;34453;52.198;5.004;2023-04-06T08:02:06;28.95;;;17.83;;
48667;SDS011;34453;52.198;5.004;2023-04-06T08:04:31;33.90;;;18.33;;
48667;SDS011;34453;52.198;5.004;2023-04-06T08:06:57;32.63;;;17.85;;
48667;SDS011;34453;52.198;5.004;2023-04-06T08:09:22;29.88;;;19.33;;
48667;SDS011;34453;52.198;5.004;2023-04-06T08:11:48;32.17;;;19.27;;
48667;SDS011;34453;52.198;5.004;2023-04-06T08:14:14;32.00;;;18.15;;
48667;SDS011;34453;52.198;5.004;2023-04-06T08:16:40;35.25;;;18.92;;
48667;SDS011;34453;52.198;5.004;2023-04-06T08:19:06;29.25;;;19.02;;
48667;SDS011;34453;52.198;5.004;2023-04-06T08:21:34;35.25;;;18.98;;
48667;SDS011;34453;52.198;5.004;2023-04-06T08:24:00;32.20;;;19.83;;
48667;SDS011;34453;52.198;5.004;2023-04-06T08:26:26;32.67;;;18.88;;
48667;SDS011;34453;52.198;5.004;2023-04-06T08:28:52;29.58;;;18.98;;
48667;SDS011;34453;52.198;5.004;2023-04-06T08:31:17;32.90;;;19.45;;
48667;SDS011;34453;52.198;5.004;2023-04-06T08:33:43;25.33;;;16.80;;
48667;SDS011;34453;52.198;5.004;2023-04-06T08:36:12;31.17;;;19.25;;
48667;SDS011;34453;52.198;5.004;2023-04-06T08:38:39;30.52;;;19.20;;
48667;SDS011;34453;52.198;5.004;2023-04-06T08:41:09;29.83;;;18.48;;
48667;SDS011;34453;52.198;5.004;2023-04-06T08:43:41;29.85;;;18.08;;
48667;SDS011;34453;52.198;5.004;2023-04-06T08:46:09;29.42;;;17.13;;
48667;SDS011;34453;52.198;5.004;2023-04-06T08:48:36;32.35;;;18.23;;
48667;SDS011;34453;52.198;5.004;2023-04-06T08:51:03;28.08;;;18.65;;
48667;SDS011;34453;52.198;5.004;2023-04-06T08:53:29;35.03;;;19.63;;
48667;SDS011;34453;52.198;5.004;2023-04-06T08:55:55;32.10;;;18.23;;
48667;SDS011;34453;52.198;5.004;2023-04-06T08:58:22;33.65;;;19.27;;
48667;SDS011;34453;52.198;5.004;2023-04-06T09:00:49;38.42;;;18.13;;
48667;SDS011;34453;52.198;5.004;2023-04-06T09:03:15;29.65;;;17.92;;
48667;SDS011;34453;52.198;5.004;2023-04-06T09:05:43;36.92;;;19.10;;
48667;SDS011;34453;52.198;5.004;2023-04-06T09:08:10;30.45;;;18.50;;
48667;SDS011;34453;52.198;5.004;2023-04-06T09:10:35;31.13;;;17.88;;
48667;SDS011;34453;52.198;5.004;2023-04-06T09:13:05;31.40;;;18.50;;
48667;SDS011;34453;52.198;5.004;2023-04-06T09:15:31;29.52;;;18.40;;
48667;SDS011;34453;52.198;5.004;2023-04-06T09:17:57;29.67;;;18.00;;
48667;SDS011;34453;52.198;5.004;2023-04-06T09:20:23;27.30;;;17.90;;
48667;SDS011;34453;52.198;5.004;2023-04-06T09:22:53;33.88;;;19.80;;
48667;SDS011;34453;52.198;5.004;2023-04-06T09:25:23;32.50;;;20.63;;
48667;SDS011;34453;52.198;5.004;2023-04-06T09:28:01;31.15;;;19.83;;
48667;SDS011;34453;52.198;5.004;2023-04-06T09:30:28;30.52;;;19.52;;
48667;SDS011;34453;52.198;5.004;2023-04-06T09:32:55;32.03;;;18.75;;
48667;SDS011;34453;52.198;5.004;2023-04-06T09:35:22;36.28;;;19.98;;
48667;SDS011;34453;52.198;5.004;2023-04-06T09:37:51;32.10;;;20.23;;
48667;SDS011;34453;52.198;5.004;2023-04-06T09:40:17;40.95;;;19.98;;
48667;SDS011;34453;52.198;5.004;2023-04-06T09:42:45;42.35;;;21.38;;
48667;SDS011;34453;52.198;5.004;2023-04-06T09:45:11;39.97;;;21.50;;
48667;SDS011;34453;52.198;5.004;2023-04-06T09:47:37;34.08;;;20.88;;
48667;SDS011;34453;52.198;5.004;2023-04-06T09:50:07;40.10;;;19.70;;
48667;SDS011;34453;52.198;5.004;2023-04-06T09:55:04;40.53;;;20.40;;
48667;SDS011;34453;52.198;5.004;2023-04-06T10:00:17;31.17;;;17.30;;
48667;SDS011;34453;52.198;5.004;2023-04-06T10:02:58;30.63;;;16.40;;
48667;SDS011;34453;52.198;5.004;2023-04-06T10:08:11;32.42;;;16.20;;
48667;SDS011;34453;52.198;5.004;2023-04-06T10:10:38;28.38;;;16.40;;
48667;SDS011;34453;52.198;5.004;2023-04-06T10:13:06;34.22;;;17.38;;
48667;SDS011;34453;52.198;5.004;2023-04-06T10:15:32;28.33;;;15.50;;
48667;SDS011;34453;52.198;5.004;2023-04-06T10:17:58;23.10;;;14.25;;
48667;SDS011;34453;52.198;5.004;2023-04-06T10:20:29;24.00;;;14.63;;
48667;SDS011;34453;52.198;5.004;2023-04-06T10:25:29;22.50;;;14.35;;
48667;SDS011;34453;52.198;5.004;2023-04-06T10:27:59;27.17;;;15.80;;
48667;SDS011;34453;52.198;5.004;2023-04-06T10:30:25;23.92;;;15.55;;
48667;SDS011;34453;52.198;5.004;2023-04-06T10:32:52;22.92;;;13.25;;
48667;SDS011;34453;52.198;5.004;2023-04-06T10:35:18;26.00;;;14.45;;
48667;SDS011;34453;52.198;5.004;2023-04-06T10:37:47;21.70;;;14.13;;
48667;SDS011;34453;52.198;5.004;2023-04-06T10:40:25;22.58;;;12.50;;
48667;SDS011;34453;52.198;5.004;2023-04-06T10:42:55;24.85;;;14.77;;
48667;SDS011;34453;52.198;5.004;2023-04-06T10:45:22;21.63;;;12.80;;
48667;SDS011;34453;52.198;5.004;2023-04-06T10:47:49;19.02;;;13.27;;
48667;SDS011;34453;52.198;5.004;2023-04-06T10:50:17;15.50;;;12.05;;
48667;SDS011;34453;52.198;5.004;2023-04-06T10:52:45;16.73;;;11.80;;
48667;SDS011;34453;52.198;5.004;2023-04-06T10:55:12;12.20;;;9.82;;
48667;SDS011;34453;52.198;5.004;2023-04-06T10:57:40;12.50;;;10.27;;
48667;SDS011;34453;52.198;5.004;2023-04-06T11:00:05;13.13;;;9.82;;
48667;SDS011;34453;52.198;5.004;2023-04-06T11:02:32;10.88;;;8.90;;
48667;SDS011;34453;52.198;5.004;2023-04-06T11:04:59;12.65;;;8.45;;
48667;SDS011;34453;52.198;5.004;2023-04-06T11:07:25;11.98;;;9.07;;
48667;SDS011;34453;52.198;5.004;2023-04-06T11:09:51;12.52;;;8.50;;
48667;SDS011;34453;52.198;5.004;2023-04-06T11:12:24;8.88;;;7.97;;
48667;SDS011;34453;52.198;5.004;2023-04-06T11:17:25;13.93;;;9.05;;
48667;SDS011;34453;52.198;5.004;2023-04-06T11:19:51;10.07;;;8.05;;
48667;SDS011;34453;52.198;5.004;2023-04-06T11:22:16;10.02;;;8.07;;
48667;SDS011;34453;52.198;5.004;2023-04-06T11:24:42;24.40;;;16.00;;
48667;SDS011;34453;52.198;5.004;2023-04-06T11:27:07;19.17;;;13.65;;
48667;SDS011;34453;52.198;5.004;2023-04-06T11:29:33;7.35;;;6.70;;
48667;SDS011;34453;52.198;5.004;2023-04-06T11:32:02;11.13;;;7.95;;
48667;SDS011;34453;52.198;5.004;2023-04-06T11:34:33;7.95;;;7.25;;
48667;SDS011;34453;52.198;5.004;2023-04-06T11:37:06;10.20;;;8.00;;
48667;SDS011;34453;52.198;5.004;2023-04-06T11:39:37;11.15;;;7.38;;
48667;SDS011;34453;52.198;5.004;2023-04-06T11:42:05;9.30;;;7.45;;
48667;SDS011;34453;52.198;5.004;2023-04-06T11:44:34;7.93;;;6.70;;
48667;SDS011;34453;52.198;5.004;2023-04-06T11:47:07;9.10;;;7.65;;
48667;SDS011;34453;52.198;5.004;2023-04-06T11:49:36;11.00;;;7.57;;
48667;SDS011;34453;52.198;5.004;2023-04-06T11:52:13;14.80;;;7.43;;
48667;SDS011;34453;52.198;5.004;2023-04-06T11:54:40;9.52;;;7.95;;
48667;SDS011;34453;52.198;5.004;2023-04-06T11:57:07;10.77;;;7.85;;
48667;SDS011;34453;52.198;5.004;2023-04-06T11:59:33;8.15;;;7.38;;
48667;SDS011;34453;52.198;5.004;2023-04-06T12:01:59;11.32;;;8.05;;
48667;SDS011;34453;52.198;5.004;2023-04-06T12:04:26;11.48;;;8.25;;
48667;SDS011;34453;52.198;5.004;2023-04-06T12:06:52;37.88;;;25.45;;
48667;SDS011;34453;52.198;5.004;2023-04-06T12:09:17;8.98;;;7.95;;
48667;SDS011;34453;52.198;5.004;2023-04-06T12:11:43;10.15;;;8.07;;
48667;SDS011;34453;52.198;5.004;2023-04-06T12:14:09;11.50;;;7.72;;
48667;SDS011;34453;52.198;5.004;2023-04-06T12:16:34;9.98;;;8.18;;
48667;SDS011;34453;52.198;5.004;2023-04-06T12:19:00;13.93;;;10.52;;
48667;SDS011;34453;52.198;5.004;2023-04-06T12:21:29;10.98;;;8.40;;
48667;SDS011;34453;52.198;5.004;2023-04-06T12:23:58;13.50;;;9.60;;
48667;SDS011;34453;52.198;5.004;2023-04-06T12:26:24;52.50;;;32.72;;
48667;SDS011;34453;52.198;5.004;2023-04-06T12:28:50;11.43;;;8.90;;
48667;SDS011;34453;52.198;5.004;2023-04-06T12:31:20;14.02;;;11.45;;
48667;SDS011;34453;52.198;5.004;2023-04-06T12:33:46;10.05;;;9.05;;
48667;SDS011;34453;52.198;5.004;2023-04-06T12:36:16;11.27;;;8.55;;
48667;SDS011;34453;52.198;5.004;2023-04-06T12:38:49;10.38;;;8.55;;
48667;SDS011;34453;52.198;5.004;2023-04-06T12:41:16;12.15;;;8.63;;
48667;SDS011;34453;52.198;5.004;2023-04-06T12:43:43;12.48;;;9.50;;
48667;SDS011;34453;52.198;5.004;2023-04-06T12:46:09;11.25;;;9.45;;
48667;SDS011;34453;52.198;5.004;2023-04-06T12:48:35;13.43;;;9.57;;
48667;SDS011;34453;52.198;5.004;2023-04-06T12:51:02;11.80;;;9.27;;
48667;SDS011;34453;52.198;5.004;2023-04-06T12:53:29;17.50;;;9.55;;
48667;SDS011;34453;52.198;5.004;2023-04-06T12:55:55;9.63;;;8.50;;
48667;SDS011;34453;52.198;5.004;2023-04-06T12:58:22;10.75;;;8.85;;
48667;SDS011;34453;52.198;5.004;2023-04-06T13:00:48;14.82;;;10.40;;
48667;SDS011;34453;52.198;5.004;2023-04-06T13:03:15;15.18;;;9.93;;
48667;SDS011;34453;52.198;5.004;2023-04-06T13:05:44;14.27;;;10.63;;
48667;SDS011;34453;52.198;5.004;2023-04-06T13:08:11;12.07;;;9.48;;
48667;SDS011;34453;52.198;5.004;2023-04-06T13:10:37;13.00;;;10.38;;
48667;SDS011;34453;52.198;5.004;2023-04-06T13:13:02;12.10;;;9.48;;
48667;SDS011;34453;52.198;5.004;2023-04-06T13:15:28;13.40;;;9.93;;
48667;SDS011;34453;52.198;5.004;2023-04-06T13:17:54;15.70;;;11.63;;
48667;SDS011;34453;52.198;5.004;2023-04-06T13:20:20;13.32;;;10.65;;
48667;SDS011;34453;52.198;5.004;2023-04-06T13:22:46;14.05;;;10.80;;
48667;SDS011;34453;52.198;5.004;2023-04-06T13:25:11;16.92;;;11.35;;
48667;SDS011;34453;52.198;5.004;2023-04-06T13:27:36;15.27;;;10.30;;
48667;SDS011;34453;52.198;5.004;2023-04-06T13:30:03;14.35;;;11.55;;
48667;SDS011;34453;52.198;5.004;2023-04-06T13:32:29;14.25;;;10.68;;
48667;SDS011;34453;52.198;5.004;2023-04-06T13:34:55;20.23;;;12.07;;
48667;SDS011;34453;52.198;5.004;2023-04-06T13:37:21;12.38;;;10.50;;
48667;SDS011;34453;52.198;5.004;2023-04-06T13:39:46;16.05;;;11.05;;
48667;SDS011;34453;52.198;5.004;2023-04-06T13:42:12;11.63;;;9.68;;
48667;SDS011;34453;52.198;5.004;2023-04-06T13:44:37;16.27;;;10.68;;
48667;SDS011;34453;52.198;5.004;2023-04-06T13:47:03;14.60;;;11.55;;
48667;SDS011;34453;52.198;5.004;2023-04-06T13:49:28;15.18;;;11.52;;
48667;SDS011;34453;52.198;5.004;2023-04-06T13:51:54;142.98;;;49.20;;
48667;SDS011;34453;52.198;5.004;2023-04-06T13:54:19;59.15;;;27.90;;
48667;SDS011;34453;52.198;5.004;2023-04-06T13:56:45;16.33;;;12.35;;
48667;SDS011;34453;52.198;5.004;2023-04-06T13:59:10;17.52;;;12.93;;
48667;SDS011;34453;52.198;5.004;2023-04-06T14:01:36;15.73;;;12.35;;
48667;SDS011;34453;52.198;5.004;2023-04-06T14:04:02;13.65;;;11.48;;
48667;SDS011;34453;52.198;5.004;2023-04-06T14:06:27;13.55;;;11.10;;
48667;SDS011;34453;52.198;5.004;2023-04-06T14:08:53;18.52;;;11.25;;
48667;SDS011;34453;52.198;5.004;2023-04-06T14:11:18;18.42;;;13.07;;
48667;SDS011;34453;52.198;5.004;2023-04-06T14:13:44;15.82;;;10.95;;
48667;SDS011;34453;52.198;5.004;2023-04-06T14:16:10;14.48;;;12.00;;
48667;SDS011;34453;52.198;5.004;2023-04-06T14:18:36;16.17;;;11.80;;
48667;SDS011;34453;52.198;5.004;2023-04-06T14:21:01;13.98;;;10.30;;
48667;SDS011;34453;52.198;5.004;2023-04-06T14:23:27;19.92;;;11.75;;
48667;SDS011;34453;52.198;5.004;2023-04-06T14:26:08;13.23;;;11.82;;
48667;SDS011;34453;52.198;5.004;2023-04-06T14:28:34;11.93;;;10.57;;
48667;SDS011;34453;52.198;5.004;2023-04-06T14:31:01;13.35;;;10.50;;
48667;SDS011;34453;52.198;5.004;2023-04-06T14:33:34;15.88;;;10.68;;